Terminal Aerodrome Forecast
Issued by NWS

Home | Current Version | Previous Version | Text Only | Print | Product List | Glossary Off
Versions: 1 2 3 4 5 6 7 8 9 10 11 12 13 14 15 16 17

000
FTUS43 KBIS 201700
TAFJMS
TAF
KJMS 201720Z 2018/2118 15011KT P6SM BKN200
     FM210100 14012KT P6SM VCTS BKN060CB
      TEMPO 2103/2106 3SM TSRA BKN030CB OVC060
     FM211000 30008KT P6SM SCT060=

USA.gov is the U.S. government's official web portal to all federal, state and local government web resources and services.